createdAt,value
2022-12-11T00:02:22.573Z,-0.2
2022-12-11T00:07:08.838Z,-0.2
2022-12-11T00:12:15.251Z,-0.2
2022-12-11T00:17:11.624Z,-0.3
2022-12-11T00:22:18.017Z,-0.3
2022-12-11T00:27:34.612Z,-0.3
2022-12-11T00:32:40.968Z,-0.3
2022-12-11T00:37:47.359Z,-0.3
2022-12-11T00:42:53.767Z,-0.3
2022-12-11T00:48:00.134Z,-0.4
2022-12-11T00:53:06.509Z,-0.4
2022-12-11T01:03:38.331Z,-0.4
2022-12-11T01:08:25.752Z,-0.4
2022-12-11T01:23:44.838Z,-0.5
2022-12-11T01:28:55.202Z,-0.5
2022-12-11T01:33:57.583Z,-0.5
2022-12-11T01:39:04.004Z,-0.5
2022-12-11T01:44:10.354Z,-0.5
2022-12-11T01:49:16.726Z,-0.5
2022-12-11T01:54:23.132Z,-0.5
2022-12-11T01:59:29.551Z,-0.6
2022-12-11T02:04:36.011Z,-0.5
2022-12-11T02:10:06.570Z,-0.6
2022-12-11T02:14:48.834Z,-0.6
2022-12-11T02:20:09.270Z,-0.6
2022-12-11T02:24:51.604Z,-0.6
2022-12-11T02:30:22.056Z,-0.6
2022-12-11T02:35:18.400Z,-0.6
2022-12-11T02:45:27.231Z,-0.6
2022-12-11T02:50:33.629Z,-0.6
2022-12-11T02:55:40.027Z,-0.6
2022-12-11T03:00:46.419Z,-0.6
2022-12-11T03:05:52.756Z,-0.6
2022-12-11T03:10:59.131Z,-0.6
2022-12-11T03:16:05.650Z,-0.6
2022-12-11T03:21:11.933Z,-0.5
2022-12-11T03:26:18.346Z,-0.5
2022-12-11T03:31:24.751Z,-0.5
2022-12-11T03:41:41.490Z,-0.5
2022-12-11T03:46:43.892Z,-0.5
2022-12-11T03:51:49.278Z,-0.5
2022-12-11T03:56:56.688Z,-0.5
2022-12-11T04:02:03.118Z,-0.5
2022-12-11T04:17:22.222Z,-0.4
2022-12-11T04:27:25.106Z,-0.4
2022-12-11T04:33:43.650Z,-0.4
2022-12-11T04:37:47.886Z,-0.4
2022-12-11T04:42:54.295Z,-0.4
2022-12-11T04:48:24.712Z,-0.4
2022-12-11T04:52:57.082Z,-0.4
2022-12-11T05:03:43.887Z,-0.3
2022-12-11T05:08:26.455Z,-0.3
2022-12-11T05:13:32.787Z,-0.3
2022-12-11T05:18:59.220Z,-0.3
2022-12-11T05:23:45.580Z,-0.3
2022-12-11T05:28:51.928Z,-0.3
2022-12-11T05:33:58.314Z,-0.3
2022-12-11T05:39:08.739Z,-0.3
2022-12-11T05:44:01.073Z,-0.3
2022-12-11T05:49:20.049Z,-0.3
2022-12-11T05:54:24.188Z,-0.3
2022-12-11T05:59:30.447Z,-0.2
2022-12-11T06:04:26.806Z,-0.2
2022-12-11T06:09:43.252Z,-0.2
2022-12-11T06:14:49.595Z,-0.2
2022-12-11T06:19:55.974Z,-0.2
2022-12-11T06:30:08.719Z,-0.2
2022-12-11T06:35:15.100Z,-0.2
2022-12-11T06:40:21.508Z,-0.2
2022-12-11T06:45:27.927Z,-0.2
2022-12-11T06:50:34.265Z,-0.2
2022-12-11T06:55:40.817Z,-0.2
2022-12-11T07:00:47.225Z,-0.2
2022-12-11T07:05:53.574Z,-0.2
2022-12-11T07:10:59.972Z,-0.2
2022-12-11T07:16:30.508Z,-0.2
2022-12-11T07:21:12.703Z,-0.2
2022-12-11T07:26:19.106Z,-0.2
2022-12-11T07:31:45.671Z,-0.2
2022-12-11T07:36:31.976Z,-0.2
2022-12-11T07:41:38.379Z,-0.1
2022-12-11T07:46:44.787Z,-0.2
2022-12-11T07:51:51.127Z,-0.1
2022-12-11T07:56:53.218Z,-0.1
2022-12-11T08:02:23.996Z,-0.1
2022-12-11T08:06:59.249Z,-0.1
2022-12-11T08:12:15.670Z,-0.1
2022-12-11T08:32:42.534Z,-0.1
2022-12-11T08:37:49.021Z,-0.1
2022-12-11T08:42:55.536Z,-0.1
2022-12-11T08:47:51.859Z,0.0
2022-12-11T08:53:07.264Z,0.0
2022-12-11T08:58:14.681Z,0.0
2022-12-11T09:03:21.065Z,0.0
2022-12-11T09:08:27.448Z,0.0
2022-12-11T09:18:40.338Z,0.1
2022-12-11T09:23:46.667Z,0.1
2022-12-11T09:33:59.463Z,0.1
2022-12-11T09:39:05.840Z,0.1
2022-12-11T09:44:12.253Z,0.2
2022-12-11T09:49:18.612Z,0.2
2022-12-11T09:54:49.045Z,0.2
2022-12-11T09:59:31.399Z,0.2
2022-12-11T10:04:37.732Z,0.3
2022-12-11T10:09:44.153Z,0.3
2022-12-11T10:14:50.618Z,0.3
2022-12-11T10:19:56.927Z,0.4
2022-12-11T10:25:27.735Z,0.4
2022-12-11T10:30:09.731Z,0.4
2022-12-11T10:35:16.093Z,0.4
2022-12-11T10:40:22.489Z,0.5
2022-12-11T10:45:18.876Z,0.5
2022-12-11T10:50:35.268Z,0.5
2022-12-11T10:55:31.728Z,0.5
2022-12-11T11:00:37.141Z,0.5
2022-12-11T11:12:16.696Z,0.6
2022-12-11T11:21:43.824Z,0.7
2022-12-11T11:26:56.307Z,0.7
2022-12-11T11:32:52.774Z,0.7
2022-12-11T11:37:03.369Z,0.7
2022-12-11T11:41:49.284Z,0.8
2022-12-11T12:18:06.461Z,2.0
2022-12-11T12:26:53.699Z,1.9
2022-12-11T12:32:01.094Z,1.9
2022-12-11T12:37:07.499Z,1.8
2022-12-11T12:42:07.495Z,1.7
2022-12-11T12:47:20.455Z,1.5
2022-12-11T12:52:16.844Z,1.4
2022-12-11T12:57:33.205Z,1.3
2022-12-11T13:02:43.598Z,1.3
2022-12-11T13:07:35.985Z,1.2
2022-12-11T13:13:12.410Z,1.2
2022-12-11T13:17:58.790Z,1.1
2022-12-11T13:24:05.298Z,1.1
2022-12-11T13:28:01.523Z,1.1
2022-12-11T13:34:18.023Z,1.0
2022-12-11T13:38:38.315Z,1.0
2022-12-11T13:43:30.764Z,1.0
2022-12-11T13:49:37.211Z,1.0
2022-12-11T13:53:43.493Z,1.0
2022-12-11T13:58:40.028Z,1.0
2022-12-11T14:03:56.448Z,0.9
2022-12-11T14:09:02.804Z,0.9
2022-12-11T14:14:09.354Z,0.9
2022-12-11T14:19:15.787Z,0.9
2022-12-11T14:24:22.191Z,0.9
2022-12-11T14:29:28.590Z,0.9
2022-12-11T14:34:55.137Z,0.9
2022-12-11T14:39:41.498Z,0.9
2022-12-11T14:44:47.934Z,0.9
2022-12-11T14:49:54.430Z,0.9
2022-12-11T14:55:00.798Z,0.9
2022-12-11T14:59:57.201Z,0.8
2022-12-11T15:05:13.587Z,0.8
2022-12-11T15:10:19.967Z,0.8
2022-12-11T15:15:26.452Z,0.8
2022-12-11T15:20:22.807Z,0.8
2022-12-11T15:25:59.265Z,0.8
2022-12-11T15:30:45.652Z,0.8
2022-12-11T15:35:56.003Z,0.8
2022-12-11T15:43:46.705Z,0.8
2022-12-11T15:46:08.868Z,0.8
2022-12-11T15:51:11.139Z,0.8
2022-12-11T15:56:41.663Z,0.8
2022-12-11T16:01:24.195Z,0.8
2022-12-11T16:06:30.489Z,0.8
2022-12-11T16:11:36.878Z,0.7
2022-12-11T16:16:43.299Z,0.7
2022-12-11T17:07:37.188Z,2.1
2022-12-11T17:13:59.713Z,1.9
2022-12-11T17:22:56.311Z,1.4
2022-12-11T17:27:52.663Z,1.2
2022-12-11T17:32:59.137Z,1.1
2022-12-11T17:38:35.564Z,0.9
2022-12-11T17:43:21.899Z,0.9
2022-12-11T17:48:18.260Z,0.8
2022-12-11T17:58:41.167Z,0.7
2022-12-11T18:04:11.651Z,0.7
2022-12-11T18:08:53.915Z,0.6
2022-12-11T18:14:00.312Z,0.6
2022-12-11T18:19:06.694Z,0.6
2022-12-11T18:24:13.100Z,0.5
2022-12-11T18:29:19.442Z,0.5
2022-12-11T18:34:15.827Z,0.5
2022-12-11T18:39:22.344Z,0.5
2022-12-11T18:44:38.748Z,0.5
2022-12-11T18:49:45.144Z,0.5
2022-12-11T18:54:51.535Z,0.5
2022-12-11T19:01:10.085Z,0.5
2022-12-11T19:05:04.280Z,0.5
2022-12-11T19:10:30.725Z,0.4
2022-12-11T19:15:22.173Z,0.4
2022-12-11T19:20:55.661Z,0.4
2022-12-11T19:25:29.007Z,0.4
2022-12-11T19:30:26.392Z,0.4
2022-12-11T19:36:06.822Z,0.4
2022-12-11T19:45:56.044Z,0.4
2022-12-11T19:51:10.046Z,0.4
2022-12-11T20:01:08.886Z,0.3
2022-12-11T20:06:15.206Z,0.3
2022-12-11T20:11:51.643Z,0.3
2022-12-11T20:22:03.417Z,0.3
2022-12-11T20:26:50.818Z,0.3
2022-12-11T20:31:57.266Z,0.3
2022-12-11T20:37:03.565Z,0.3
2022-12-11T20:52:46.779Z,0.3
2022-12-11T20:57:29.226Z,0.2
2022-12-11T21:02:35.811Z,0.2
2022-12-11T21:07:42.110Z,0.3
2022-12-11T21:12:48.524Z,0.2
2022-12-11T21:17:54.957Z,0.2
2022-12-11T21:23:21.353Z,0.2
2022-12-11T21:28:33.596Z,0.2
2022-12-11T21:33:14.091Z,0.2
2022-12-11T21:38:20.534Z,0.2
2022-12-11T21:43:16.991Z,0.2
2022-12-11T21:48:33.395Z,0.2
2022-12-11T21:53:39.802Z,0.2
2022-12-11T21:58:46.150Z,0.2
2022-12-11T22:09:23.128Z,0.2
2022-12-11T22:14:05.433Z,0.2
2022-12-11T22:19:11.922Z,0.2
2022-12-11T22:24:18.400Z,0.2
2022-12-11T22:29:24.823Z,0.2
2022-12-11T22:34:55.237Z,0.2
2022-12-11T22:40:21.685Z,0.2
2022-12-11T22:44:49.239Z,0.2
2022-12-11T22:49:49.413Z,0.2
2022-12-11T22:55:00.802Z,0.2
2022-12-11T23:00:03.350Z,0.2
2022-12-11T23:05:10.149Z,0.2
2022-12-11T23:10:40.218Z,0.2
2022-12-11T23:15:22.567Z,0.2
2022-12-11T23:20:28.973Z,0.2
2022-12-11T23:25:35.324Z,0.2
2022-12-11T23:32:13.988Z,0.2
2022-12-11T23:51:31.631Z,0.2
2022-12-11T23:56:14.052Z,0.2
